Time;durP1;ratioP1;P1;durP2;ratioP2;P2;SDS_P1;SDS_P2;PMS_P1;PMS_P2;Temp;Humidity;BMP_temperature;BMP_pressure;BME280_temperature;BME280_humidity;BME280_pressure;Samples;Min_cycle;Max_cycle;Signal;HPM_P1;HPM_P2
2023/06/11 03:00:51;;;;;;;32.77;30.70;;;16.00;99.90;;;;;;5754204;23;20258;-79
2023/06/11 03:03:17;;;;;;;27.83;26.13;;;15.90;99.90;;;;;;4999406;28;20204;-80
2023/06/11 03:05:43;;;;;;;29.77;27.90;;;15.90;99.90;;;;;;4976139;28;20631;-80
2023/06/11 03:08:09;;;;;;;18.87;17.50;;;15.90;99.90;;;;;;4992904;28;20219;-80
2023/06/11 03:10:34;;;;;;;24.83;23.13;;;16.00;99.90;;;;;;4990671;28;20246;-81
2023/06/11 03:15:25;;;;;;;26.13;24.63;;;15.90;99.90;;;;;;4994255;23;20237;-79
2023/06/11 03:17:51;;;;;;;17.77;16.33;;;15.90;99.90;;;;;;4963163;28;20247;-79
2023/06/11 03:20:17;;;;;;;26.23;24.70;;;15.90;99.90;;;;;;4961332;28;20772;-78
2023/06/11 03:22:43;;;;;;;19.27;17.87;;;15.90;99.90;;;;;;4962687;28;20200;-79
2023/06/11 03:25:08;;;;;;;21.80;20.47;;;15.90;99.90;;;;;;4947891;28;20222;-79
2023/06/11 03:27:34;;;;;;;20.60;19.20;;;15.90;99.90;;;;;;4926039;29;20221;-79
2023/06/11 03:30:00;;;;;;;24.67;23.07;;;15.90;99.90;;;;;;4925929;29;20265;-79
2023/06/11 03:32:26;;;;;;;17.67;16.27;;;15.90;99.90;;;;;;4941738;28;20213;-79
2023/06/11 03:34:51;;;;;;;17.30;16.20;;;15.80;99.90;;;;;;4945678;28;20227;-79
2023/06/11 03:37:18;;;;;;;14.93;13.93;;;15.80;99.90;;;;;;4941577;29;20200;-79
2023/06/11 03:39:44;;;;;;;25.53;23.73;;;15.80;99.90;;;;;;4949372;28;20193;-78
2023/06/11 03:42:10;;;;;;;23.67;22.20;;;15.70;99.90;;;;;;4969806;28;20219;-79
2023/06/11 03:44:36;;;;;;;22.57;20.57;;;15.80;99.90;;;;;;4945546;28;20210;-79
2023/06/11 03:47:02;;;;;;;20.87;19.67;;;15.80;99.90;;;;;;4945281;29;20545;-79
2023/06/11 03:49:28;;;;;;;19.93;18.47;;;15.80;99.90;;;;;;4961101;28;20245;-79
2023/06/11 03:51:55;;;;;;;19.97;18.47;;;15.80;99.90;;;;;;4943409;29;20221;-79
2023/06/11 03:54:21;;;;;;;22.27;20.70;;;15.80;99.90;;;;;;4950285;28;20697;-79
2023/06/11 03:56:46;;;;;;;15.53;14.43;;;15.80;99.90;;;;;;4943079;28;20273;-79
2023/06/11 03:59:12;;;;;;;16.67;15.47;;;15.90;99.90;;;;;;4951486;28;20193;-79
2023/06/11 04:01:38;;;;;;;14.90;13.90;;;15.90;99.90;;;;;;4963777;28;20220;-79
2023/06/11 04:04:04;;;;;;;24.27;22.63;;;16.00;99.90;;;;;;4946717;29;20216;-79
2023/06/11 04:06:38;;;;;;;37.20;34.97;;;16.00;99.90;;;;;;4954925;28;20675;-79
2023/06/11 04:09:07;;;;;;;39.60;37.37;;;16.00;99.90;;;;;;4964857;28;20196;-79
2023/06/11 04:11:33;;;;;;;58.97;55.70;;;16.10;99.90;;;;;;4946647;28;20201;-79
2023/06/11 04:13:59;;;;;;;52.87;50.00;;;16.20;99.90;;;;;;4970312;28;20226;-79
2023/06/11 04:16:25;;;;;;;78.93;74.63;;;16.20;99.90;;;;;;4958633;29;20209;-79
2023/06/11 04:18:52;;;;;;;75.50;71.50;;;16.30;99.90;;;;;;4956633;29;20296;-79
2023/06/11 04:21:18;;;;;;;64.03;60.50;;;16.40;99.90;;;;;;4950069;29;20197;-79
2023/06/11 04:23:44;;;;;;;38.80;36.43;;;16.50;99.90;;;;;;4948700;28;20221;-80
2023/06/11 04:26:10;;;;;;;16.13;14.67;;;16.50;99.90;;;;;;4948558;29;20249;-79
2023/06/11 04:28:37;;;;;;;19.63;18.43;;;16.60;99.90;;;;;;4949005;28;20197;-79
2023/06/11 04:31:04;;;;;;;40.33;37.83;;;16.70;99.90;;;;;;4954558;29;20193;-78
2023/06/11 04:33:33;;;;;;;106.10;100.47;;;16.70;99.90;;;;;;4964947;28;20221;-79
2023/06/11 04:36:09;;;;;;;205.50;194.50;;;16.80;99.90;;;;;;4949044;29;20193;-79
2023/06/11 04:38:37;;;;;;;315.70;298.53;;;17.00;99.90;;;;;;4964032;28;20200;-80
2023/06/11 04:41:08;;;;;;;303.40;287.03;;;17.10;99.90;;;;;;4964549;28;20265;-79
2023/06/11 04:43:34;;;;;;;199.55;188.93;;;17.20;99.90;;;;;;4947028;28;20222;-79
2023/06/11 04:46:03;;;;;;;165.67;156.90;;;17.30;99.90;;;;;;4947279;29;20236;-79
2023/06/11 04:48:31;;;;;;;65.22;61.22;;;17.40;99.90;;;;;;4950601;28;20217;-79
2023/06/11 04:51:01;;;;;;;14.77;13.77;;;17.60;99.90;;;;;;4948304;29;20209;-79
2023/06/11 04:53:28;;;;;;;17.65;16.35;;;17.70;99.90;;;;;;4944256;28;20225;-79
2023/06/11 04:55:56;;;;;;;24.38;22.77;;;17.90;99.90;;;;;;4943373;29;20281;-78
2023/06/11 04:58:25;;;;;;;65.88;62.30;;;18.10;99.90;;;;;;4974071;28;20193;-79
2023/06/11 05:00:52;;;;;;;200.35;189.48;;;18.30;99.90;;;;;;4965932;28;20209;-79
2023/06/11 05:03:19;;;;;;;48.58;45.85;;;18.60;99.90;;;;;;4948395;29;20193;-78
2023/06/11 05:05:51;;;;;;;13.15;12.25;;;18.90;99.90;;;;;;4948781;28;20468;-79
2023/06/11 05:08:18;;;;;;;10.50;9.90;;;19.40;99.90;;;;;;4947947;29;20205;-78
2023/06/11 05:10:44;;;;;;;16.73;15.70;;;20.10;99.90;;;;;;4947880;28;20193;-79
2023/06/11 05:13:11;;;;;;;13.70;12.85;;;20.80;99.90;;;;;;4966050;28;20228;-79
2023/06/11 05:15:37;;;;;;;15.07;14.15;;;21.30;99.90;;;;;;4957630;28;20182;-78
2023/06/11 05:18:03;;;;;;;14.07;12.95;;;21.80;99.90;;;;;;4961168;29;20253;-78
2023/06/11 05:20:29;;;;;;;11.45;10.75;;;22.20;99.90;;;;;;4959424;28;20194;-78
2023/06/11 05:22:58;;;;;;;15.88;14.95;;;22.30;99.90;;;;;;4959885;29;20202;-78
2023/06/11 05:25:28;;;;;;;17.13;16.13;;;22.40;99.90;;;;;;4967007;28;20218;-82
2023/06/11 05:27:57;;;;;;;12.00;11.10;;;22.50;99.90;;;;;;4964078;28;20190;-79
2023/06/11 05:30:25;;;;;;;17.17;15.73;;;22.80;99.90;;;;;;4947861;29;20193;-80
2023/06/11 05:32:53;;;;;;;23.25;21.95;;;23.10;99.90;;;;;;4947674;29;20660;-80
2023/06/11 05:35:20;;;;;;;25.60;24.25;;;23.20;99.90;;;;;;4947156;29;20209;-81
2023/06/11 05:37:46;;;;;;;15.40;14.48;;;23.60;99.90;;;;;;4964015;28;20545;-80
2023/06/11 05:40:13;;;;;;;15.50;14.52;;;23.80;99.90;;;;;;4947347;29;20200;-80
2023/06/11 05:42:39;;;;;;;13.18;12.13;;;23.90;99.90;;;;;;4963196;28;20185;-80
2023/06/11 05:45:06;;;;;;;10.70;10.05;;;24.00;99.90;;;;;;4972047;28;20233;-80
2023/06/11 05:47:32;;;;;;;7.43;6.93;;;24.50;99.90;;;;;;4945288;28;20260;-80
2023/06/11 05:49:59;;;;;;;7.63;6.88;;;25.00;99.90;;;;;;4963417;28;20202;-80
2023/06/11 05:52:25;;;;;;;10.90;10.20;;;25.20;99.90;;;;;;4962026;28;20220;-80
2023/06/11 05:54:50;;;;;;;23.70;22.20;;;25.70;99.90;;;;;;4946492;28;20237;-80
2023/06/11 05:57:25;;;;;;;35.70;33.80;;;25.80;99.90;;;;;;4946563;29;20216;-79
2023/06/11 05:59:51;;;;;;;19.95;18.80;;;25.90;99.90;;;;;;4949175;29;20296;-79
2023/06/11 06:02:18;;;;;;;9.20;8.70;;;26.20;99.90;;;;;;4964361;28;20193;-79
2023/06/11 06:04:48;;;;;;;7.70;7.20;;;26.40;99.90;;;;;;4962434;28;20229;-82
2023/06/11 06:07:17;;;;;;;8.45;7.95;;;26.40;99.90;;;;;;4945839;29;20205;-80
2023/06/11 06:09:44;;;;;;;8.85;8.35;;;26.80;99.90;;;;;;4945983;28;20200;-79
2023/06/11 06:12:10;;;;;;;10.10;9.50;;;26.90;99.90;;;;;;4963327;28;20221;-79
2023/06/11 06:14:36;;;;;;;8.82;8.02;;;26.90;99.90;;;;;;4952609;28;20253;-80
2023/06/11 06:17:02;;;;;;;6.25;5.85;;;26.80;99.90;;;;;;4961862;28;20236;-80
2023/06/11 06:19:28;;;;;;;8.77;8.25;;;26.40;99.90;;;;;;4961355;28;20288;-80
2023/06/11 06:21:53;;;;;;;9.23;8.48;;;26.00;99.90;;;;;;4961213;28;20193;-80
2023/06/11 06:24:19;;;;;;;9.40;8.57;;;26.10;99.90;;;;;;4942801;29;20289;-80
2023/06/11 06:26:47;;;;;;;11.80;10.82;;;26.40;99.90;;;;;;4944602;28;20217;-79
2023/06/11 06:29:13;;;;;;;7.88;7.13;;;25.80;99.90;;;;;;4944263;29;20268;-80
2023/06/11 06:31:42;;;;;;;7.45;6.88;;;25.00;99.90;;;;;;4943149;28;20681;-80
2023/06/11 06:34:08;;;;;;;9.95;9.25;;;25.20;99.90;;;;;;4942967;29;20641;-80
2023/06/11 06:36:35;;;;;;;12.32;11.43;;;25.00;99.90;;;;;;4963410;28;20186;-80
2023/06/11 06:39:01;;;;;;;19.00;17.92;;;25.10;99.90;;;;;;4970900;28;20197;-80
2023/06/11 06:41:27;;;;;;;15.93;14.93;;;25.10;99.90;;;;;;4967756;28;20205;-79
2023/06/11 06:43:53;;;;;;;13.20;12.30;;;25.20;99.90;;;;;;4957451;29;20233;-80
2023/06/11 06:46:19;;;;;;;8.68;6.72;;;25.40;99.90;;;;;;4978007;28;20210;-80
2023/06/11 06:48:45;;;;;;;8.10;7.60;;;26.10;99.90;;;;;;4967987;28;20205;-81
2023/06/11 06:51:11;;;;;;;7.72;7.20;;;26.00;99.90;;;;;;4965585;28;20197;-81
2023/06/11 06:53:36;;;;;;;8.10;7.40;;;26.00;99.90;;;;;;4963887;28;20582;-80
2023/06/11 06:56:05;;;;;;;8.88;8.20;;;26.00;99.90;;;;;;4948417;29;20197;-80
2023/06/11 06:58:32;;;;;;;9.30;8.60;;;26.20;99.90;;;;;;4952123;28;20297;-81
2023/06/11 07:00:58;;;;;;;8.88;8.27;;;26.40;99.70;;;;;;4947719;29;20189;-81
2023/06/11 07:03:24;;;;;;;9.55;8.82;;;26.50;99.20;;;;;;4946894;29;20486;-81
2023/06/11 07:05:50;;;;;;;7.80;7.30;;;26.50;99.40;;;;;;4953992;28;20193;-81
2023/06/11 07:08:15;;;;;;;8.82;8.23;;;26.40;99.20;;;;;;4963195;28;20253;-81
2023/06/11 07:10:47;;;;;;;10.40;9.75;;;26.00;98.70;;;;;;4944963;28;20200;-81
2023/06/11 07:13:13;;;;;;;9.43;8.82;;;25.90;99.00;;;;;;4945797;28;20240;-81
2023/06/11 07:15:38;;;;;;;10.60;9.73;;;25.90;98.80;;;;;;4945532;28;20197;-81
2023/06/11 07:18:04;;;;;;;7.38;6.80;;;26.10;98.40;;;;;;4943775;29;20193;-81
2023/06/11 07:20:30;;;;;;;9.02;8.52;;;26.10;98.00;;;;;;4944191;28;20196;-81
2023/06/11 07:22:59;;;;;;;7.00;6.32;;;26.10;98.60;;;;;;4962381;28;20193;-81
2023/06/11 07:25:28;;;;;;;9.70;9.00;;;26.80;98.10;;;;;;4943668;29;20202;-81
2023/06/11 07:27:54;;;;;;;12.88;12.13;;;27.10;97.10;;;;;;4943888;29;20736;-82
2023/06/11 07:30:20;;;;;;;15.25;14.45;;;27.30;96.80;;;;;;4951943;29;20177;-82
2023/06/11 07:32:46;;;;;;;16.63;15.73;;;27.00;96.60;;;;;;4948332;28;20217;-81
2023/06/11 07:35:12;;;;;;;17.77;16.77;;;26.70;96.60;;;;;;4968201;28;20206;-81
2023/06/11 07:37:38;;;;;;;14.25;13.35;;;26.50;95.30;;;;;;4949500;28;20200;-80
2023/06/11 07:40:05;;;;;;;16.55;15.55;;;26.40;95.40;;;;;;4950572;29;20190;-80
2023/06/11 07:42:31;;;;;;;15.20;14.18;;;26.50;94.60;;;;;;4966797;28;20194;-80
2023/06/11 07:44:56;;;;;;;12.00;11.27;;;26.40;94.00;;;;;;4948889;29;20233;-80
2023/06/11 07:47:22;;;;;;;13.63;12.65;;;26.40;94.60;;;;;;4947739;29;20212;-80
2023/06/11 07:49:49;;;;;;;10.85;10.25;;;26.30;92.80;;;;;;4971569;28;20181;-81
2023/06/11 07:52:15;;;;;;;11.25;10.60;;;26.20;92.50;;;;;;4967881;28;20280;-81
2023/06/11 07:54:41;;;;;;;10.63;9.63;;;26.10;92.80;;;;;;4952795;28;20214;-81
2023/06/11 07:57:08;;;;;;;10.98;10.00;;;26.20;92.30;;;;;;4976357;28;20177;-82
2023/06/11 07:59:36;;;;;;;9.60;9.10;;;26.50;92.10;;;;;;4960150;28;20296;-81
2023/06/11 08:02:03;;;;;;;10.07;9.35;;;26.40;91.70;;;;;;4962178;29;20189;-81
2023/06/11 08:04:29;;;;;;;9.10;8.60;;;26.50;90.90;;;;;;4963323;28;20201;-82
2023/06/11 08:06:54;;;;;;;11.13;10.05;;;26.70;90.90;;;;;;4978204;28;20197;-81
2023/06/11 08:09:20;;;;;;;11.77;10.98;;;26.60;91.30;;;;;;4958985;29;20201;-80
2023/06/11 08:11:46;;;;;;;12.40;11.70;;;26.70;91.00;;;;;;4957691;28;20208;-81
2023/06/11 08:14:12;;;;;;;6.80;6.30;;;27.10;88.80;;;;;;4953258;29;20601;-82
2023/06/11 08:16:38;;;;;;;12.43;11.73;;;26.90;88.20;;;;;;4951690;28;20218;-80
2023/06/11 08:19:03;;;;;;;10.27;9.68;;;26.70;89.60;;;;;;4957160;29;20269;-80
2023/06/11 08:21:29;;;;;;;8.98;8.38;;;27.00;88.10;;;;;;4954687;28;20278;-82
2023/06/11 08:23:56;;;;;;;8.82;8.32;;;26.80;88.80;;;;;;4972925;28;20276;-82
2023/06/11 08:26:21;;;;;;;7.75;5.40;;;27.10;88.20;;;;;;4951369;29;20571;-82
2023/06/11 08:28:47;;;;;;;6.68;6.28;;;27.10;87.90;;;;;;4950433;28;20253;-81
2023/06/11 08:31:14;;;;;;;6.25;5.72;;;27.20;88.20;;;;;;4967074;28;20193;-81
2023/06/11 08:33:40;;;;;;;8.30;7.80;;;28.00;85.00;;;;;;4949144;28;20222;-81
2023/06/11 08:36:06;;;;;;;7.97;7.47;;;27.90;84.10;;;;;;4951560;29;20210;-80
2023/06/11 08:38:32;;;;;;;7.50;6.97;;;27.90;82.60;;;;;;4949210;28;20688;-80
2023/06/11 08:40:58;;;;;;;6.97;6.47;;;28.40;81.10;;;;;;4956717;29;20198;-81
2023/06/11 08:43:24;;;;;;;6.53;6.03;;;28.50;79.90;;;;;;4948413;29;20210;-80
2023/06/11 08:45:50;;;;;;;6.28;5.78;;;27.90;81.50;;;;;;4948044;28;20689;-82
2023/06/11 08:48:20;;;;;;;5.70;5.30;;;28.00;78.40;;;;;;4958256;28;20200;-80
2023/06/11 08:50:48;;;;;;;7.03;6.43;;;28.00;77.80;;;;;;4971743;28;20194;-82
2023/06/11 08:53:14;;;;;;;11.32;7.70;;;27.80;78.50;;;;;;4967166;28;20222;-82
2023/06/11 08:55:41;;;;;;;7.10;6.15;;;28.10;77.80;;;;;;4966089;28;20221;-82
2023/06/11 08:58:08;;;;;;;7.07;6.47;;;28.50;74.80;;;;;;4973131;28;20190;-81
2023/06/11 09:00:37;;;;;;;6.25;5.75;;;28.40;75.10;;;;;;4965863;28;20221;-81
2023/06/11 09:03:04;;;;;;;6.88;6.18;;;28.30;76.80;;;;;;4970823;28;20272;-81
2023/06/11 09:05:33;;;;;;;7.20;6.60;;;28.50;76.20;;;;;;4955003;28;20205;-81
2023/06/11 09:07:59;;;;;;;8.65;8.10;;;28.90;73.70;;;;;;4964447;28;20190;-81
2023/06/11 09:10:26;;;;;;;9.63;9.02;;;29.00;70.10;;;;;;4957272;29;20220;-81
2023/06/11 09:12:54;;;;;;;11.88;10.95;;;28.20;69.20;;;;;;4963396;28;20221;-80
2023/06/11 09:15:20;;;;;;;8.80;8.20;;;27.80;70.40;;;;;;5030449;23;20304;-78
2023/06/11 09:17:48;;;;;;;8.45;7.82;;;27.80;70.10;;;;;;4959595;28;20187;-80
2023/06/11 09:20:15;;;;;;;11.48;10.63;;;28.20;70.20;;;;;;4959389;28;20711;-80
2023/06/11 09:22:43;;;;;;;8.75;8.25;;;28.80;67.20;;;;;;4959676;28;20287;-79
2023/06/11 09:25:10;;;;;;;11.15;9.15;;;28.80;65.40;;;;;;4962601;28;20640;-80
2023/06/11 09:27:37;;;;;;;11.10;10.40;;;28.40;69.00;;;;;;4956880;28;20536;-80
2023/06/11 09:30:21;;;;;;;9.63;8.93;;;28.60;69.10;;;;;;4940214;29;20624;-80
2023/06/11 09:32:48;;;;;;;8.00;7.40;;;28.90;67.80;;;;;;4944349;28;20229;-80
2023/06/11 09:35:15;;;;;;;8.57;7.88;;;29.20;64.30;;;;;;4951419;29;20240;-81
2023/06/11 09:37:45;;;;;;;7.97;7.38;;;29.00;61.40;;;;;;4939413;28;20197;-81
2023/06/11 09:40:16;;;;;;;10.98;10.13;;;29.20;61.20;;;;;;4956710;28;20182;-80
2023/06/11 09:42:47;;;;;;;13.95;13.23;;;29.30;59.90;;;;;;4956228;28;20193;-81
2023/06/11 09:45:19;;;;;;;10.98;10.18;;;29.10;59.20;;;;;;4939454;29;20249;-80
2023/06/11 09:47:46;;;;;;;8.30;7.75;;;29.60;60.80;;;;;;4939347;28;20626;-81
2023/06/11 09:50:17;;;;;;;14.68;13.85;;;29.90;61.00;;;;;;4939211;29;20685;-81
2023/06/11 09:52:44;;;;;;;16.52;15.52;;;30.10;59.30;;;;;;4963985;28;20213;-80
2023/06/11 09:55:10;;;;;;;14.18;13.07;;;29.80;59.20;;;;;;4938571;28;20211;-81
2023/06/11 09:57:38;;;;;;;9.80;9.00;;;29.80;60.40;;;;;;4937457;28;20194;-80
2023/06/11 10:00:09;;;;;;;11.15;10.45;;;29.40;61.80;;;;;;4939771;29;20562;-81
2023/06/11 10:02:37;;;;;;;7.75;7.25;;;29.30;60.70;;;;;;4939742;28;20201;-81
2023/06/11 10:05:04;;;;;;;8.10;6.63;;;29.30;62.60;;;;;;4940703;29;20217;-81
2023/06/11 10:07:31;;;;;;;7.03;6.53;;;29.50;63.30;;;;;;4944192;28;20730;-80
2023/06/11 10:09:58;;;;;;;8.63;7.82;;;29.80;63.40;;;;;;4942058;29;20193;-81
2023/06/11 10:12:24;;;;;;;10.32;9.60;;;29.90;62.70;;;;;;4939075;29;20221;-81
2023/06/11 10:14:52;;;;;;;11.85;11.07;;;30.30;61.70;;;;;;4955638;28;20312;-81
2023/06/11 10:17:18;;;;;;;28.40;26.92;;;31.00;60.80;;;;;;4938291;29;20213;-82
2023/06/11 10:19:48;;;;;;;19.00;17.83;;;31.20;60.30;;;;;;4938613;28;20232;-81
2023/06/11 10:22:19;;;;;;;17.38;16.17;;;31.20;59.70;;;;;;4938329;29;20224;-81
2023/06/11 10:24:57;;;;;;;18.20;17.20;;;31.00;59.20;;;;;;4938160;28;20217;-82
2023/06/11 10:27:34;;;;;;;25.48;23.83;;;30.60;58.90;;;;;;4943292;29;20291;-81
2023/06/11 10:30:00;;;;;;;23.60;22.05;;;30.70;59.80;;;;;;4946488;29;20221;-80
2023/06/11 10:32:25;;;;;;;20.05;18.85;;;31.20;58.90;;;;;;4970020;28;20213;-80
2023/06/11 10:35:00;;;;;;;17.67;16.58;;;31.10;59.20;;;;;;4967619;28;20296;-80
2023/06/11 10:37:47;;;;;;;21.70;20.27;;;31.20;56.50;;;;;;4954471;29;20189;-80
2023/06/11 10:40:14;;;;;;;19.60;18.55;;;30.50;56.80;;;;;;4974849;28;20257;-80
2023/06/11 10:42:41;;;;;;;22.95;21.60;;;30.70;57.90;;;;;;4958252;28;20317;-81
2023/06/11 10:45:09;;;;;;;21.75;20.52;;;30.40;57.00;;;;;;4943817;28;20276;-81
2023/06/11 10:47:45;;;;;;;19.52;18.13;;;30.20;57.70;;;;;;4940364;28;20213;-81
2023/06/11 10:50:13;;;;;;;21.60;20.00;;;30.50;58.00;;;;;;4955725;28;20731;-81
2023/06/11 10:52:49;;;;;;;25.40;23.65;;;31.20;56.60;;;;;;4955010;28;20304;-80
2023/06/11 10:55:17;;;;;;;18.88;17.85;;;31.20;54.60;;;;;;4937612;29;20212;-81
2023/06/11 10:57:43;;;;;;;49.80;47.05;;;31.10;55.50;;;;;;4955157;28;20184;-81
2023/06/11 11:00:10;;;;;;;43.80;41.58;;;31.30;54.10;;;;;;4955527;28;20185;-81
2023/06/11 11:02:37;;;;;;;34.88;33.10;;;30.90;53.50;;;;;;4940224;28;20185;-81
2023/06/11 11:05:07;;;;;;;27.65;26.23;;;31.10;54.50;;;;;;4953520;28;20213;-80
2023/06/11 11:07:34;;;;;;;37.35;35.30;;;31.70;54.70;;;;;;4940503;28;20193;-81
2023/06/11 11:10:01;;;;;;;38.65;36.35;;;31.70;53.50;;;;;;4936834;29;20207;-80
2023/06/11 11:12:26;;;;;;;46.20;43.75;;;31.20;53.70;;;;;;4936661;29;20220;-80
2023/06/11 11:14:52;;;;;;;39.35;37.28;;;31.00;54.10;;;;;;4936337;29;20225;-81
2023/06/11 11:17:18;;;;;;;32.20;30.30;;;31.30;54.60;;;;;;4936686;29;20197;-80
2023/06/11 11:19:44;;;;;;;41.70;39.53;;;31.40;54.70;;;;;;4962316;28;20208;-81
2023/06/11 11:22:13;;;;;;;42.20;39.80;;;31.70;53.80;;;;;;4936623;29;20199;-81
2023/06/11 11:24:39;;;;;;;40.03;37.95;;;31.80;54.10;;;;;;4953889;28;20241;-82
2023/06/11 11:27:08;;;;;;;31.98;30.23;;;32.10;52.80;;;;;;4955023;28;20190;-81
2023/06/11 11:29:33;;;;;;;14.40;13.48;;;32.30;52.70;;;;;;4938112;28;20185;-82
2023/06/11 11:31:59;;;;;;;8.50;7.95;;;32.90;51.20;;;;;;4937854;29;20217;-82
2023/06/11 11:34:27;;;;;;;9.35;6.72;;;32.90;49.80;;;;;;4954435;28;20220;-81
2023/06/11 11:36:54;;;;;;;8.93;8.23;;;32.30;50.10;;;;;;4940202;29;20279;-82
2023/06/11 11:39:20;;;;;;;11.57;10.63;;;32.50;50.50;;;;;;4938953;29;20181;-81
2023/06/11 11:41:50;;;;;;;13.60;12.73;;;32.10;51.50;;;;;;4938805;28;20193;-82
2023/06/11 11:44:20;;;;;;;10.73;10.07;;;32.30;51.60;;;;;;4938374;29;20212;-80
2023/06/11 11:46:46;;;;;;;6.95;6.45;;;32.80;51.00;;;;;;4938865;28;20217;-81
2023/06/11 11:49:12;;;;;;;6.28;5.63;;;33.20;50.00;;;;;;4938092;29;20185;-81
2023/06/11 11:51:45;;;;;;;6.38;5.80;;;33.80;49.40;;;;;;4937501;28;20189;-81
2023/06/11 11:54:15;;;;;;;6.20;5.80;;;33.60;49.30;;;;;;4938342;29;20293;-81
2023/06/11 11:56:41;;;;;;;7.88;7.13;;;33.10;49.70;;;;;;4941297;28;20189;-82
2023/06/11 11:59:22;;;;;;;6.80;6.05;;;32.80;50.00;;;;;;4939069;29;20670;-81
2023/06/11 12:01:55;;;;;;;9.32;8.68;;;33.00;49.80;;;;;;4954137;28;20197;-81
2023/06/11 12:04:22;;;;;;;8.98;7.38;;;32.60;50.80;;;;;;4953791;28;20209;-80
2023/06/11 12:06:48;;;;;;;7.63;7.07;;;32.40;50.50;;;;;;4957063;28;20251;-81
2023/06/11 12:09:13;;;;;;;8.75;7.97;;;32.60;50.50;;;;;;4941514;29;20201;-81
2023/06/11 12:11:39;;;;;;;7.38;6.78;;;33.50;49.60;;;;;;4965815;28;20193;-80
2023/06/11 12:14:05;;;;;;;11.70;11.10;;;34.40;48.00;;;;;;4944154;29;20225;-81
2023/06/11 12:16:32;;;;;;;15.48;14.38;;;34.70;46.90;;;;;;4965737;28;20193;-79
2023/06/11 12:18:58;;;;;;;16.65;15.75;;;34.80;47.20;;;;;;4937501;29;20189;-82
2023/06/11 12:21:24;;;;;;;10.68;9.98;;;34.20;46.70;;;;;;4958249;28;20186;-82
2023/06/11 12:23:50;;;;;;;11.68;8.95;;;33.50;47.70;;;;;;4943752;28;20220;-81
2023/06/11 12:26:16;;;;;;;7.78;7.22;;;33.00;48.20;;;;;;4945354;29;20272;-81
2023/06/11 12:28:41;;;;;;;9.05;8.15;;;32.70;48.50;;;;;;4957350;28;20700;-81
2023/06/11 12:31:07;;;;;;;11.23;8.30;;;33.00;47.80;;;;;;4940601;29;20560;-81
2023/06/11 12:33:33;;;;;;;13.73;12.93;;;33.40;47.70;;;;;;4939871;28;20212;-81
2023/06/11 12:35:59;;;;;;;15.02;14.13;;;34.10;46.20;;;;;;4940042;29;20197;-81
2023/06/11 12:38:25;;;;;;;15.43;14.57;;;34.00;45.70;;;;;;4939787;29;20197;-81
2023/06/11 12:40:52;;;;;;;18.77;17.48;;;33.90;46.30;;;;;;4939729;28;20190;-81
2023/06/11 12:43:17;;;;;;;14.85;14.05;;;33.70;45.80;;;;;;4940102;29;20193;-81
2023/06/11 12:45:43;;;;;;;24.45;22.85;;;34.00;46.20;;;;;;4940640;28;20216;-81
2023/06/11 12:48:09;;;;;;;18.52;17.20;;;34.60;45.50;;;;;;4950493;29;20236;-81
2023/06/11 12:50:35;;;;;;;21.80;20.50;;;35.00;43.90;;;;;;4941653;28;20273;-80
2023/06/11 12:53:01;;;;;;;21.48;20.25;;;34.50;45.10;;;;;;4939317;29;20221;-80
2023/06/11 12:55:27;;;;;;;18.42;17.23;;;34.00;45.80;;;;;;4956386;28;20236;-79
2023/06/11 12:57:52;;;;;;;14.57;13.57;;;33.20;46.40;;;;;;4938432;29;20735;-80
2023/06/11 13:00:18;;;;;;;13.27;12.25;;;32.90;46.70;;;;;;4955984;28;20182;-80
2023/06/11 13:02:44;;;;;;;10.05;9.35;;;33.00;46.90;;;;;;4938691;28;20197;-81
2023/06/11 13:05:10;;;;;;;12.68;11.77;;;33.20;46.70;;;;;;4956381;28;20711;-80
2023/06/11 13:07:36;;;;;;;20.25;19.20;;;33.50;46.30;;;;;;4955729;28;20685;-81
2023/06/11 13:10:03;;;;;;;22.92;21.63;;;34.20;44.70;;;;;;4939400;29;20557;-81
2023/06/11 13:12:29;;;;;;;17.63;16.58;;;34.60;44.60;;;;;;4956151;28;20222;-80
2023/06/11 13:14:55;;;;;;;23.05;21.75;;;34.00;42.20;;;;;;4958544;28;20224;-80
2023/06/11 13:17:21;;;;;;;20.45;19.38;;;33.50;42.80;;;;;;4941258;29;20207;-81
2023/06/11 13:19:47;;;;;;;20.55;19.45;;;34.10;43.10;;;;;;4958318;28;20536;-81
2023/06/11 13:22:15;;;;;;;19.77;18.67;;;34.20;43.20;;;;;;4957299;28;20197;-81
2023/06/11 13:24:40;;;;;;;19.73;18.48;;;34.50;43.00;;;;;;4948012;28;20296;-81
2023/06/11 13:27:08;;;;;;;20.75;19.45;;;34.50;42.60;;;;;;4940849;29;20692;-81
2023/06/11 13:29:34;;;;;;;17.48;16.27;;;34.50;43.00;;;;;;4939550;28;20666;-80
2023/06/11 13:32:00;;;;;;;16.25;15.32;;;34.60;43.10;;;;;;4938544;29;20248;-81
2023/06/11 13:34:26;;;;;;;20.60;19.30;;;35.20;42.60;;;;;;4956984;28;20682;-80
2023/06/11 13:36:55;;;;;;;21.05;19.90;;;35.60;42.20;;;;;;4956565;28;20189;-79
2023/06/11 13:39:23;;;;;;;13.32;12.23;;;35.20;43.30;;;;;;4944719;29;20190;-81
2023/06/11 13:41:49;;;;;;;13.55;12.70;;;35.50;42.10;;;;;;4939618;28;20182;-81
2023/06/11 13:44:15;;;;;;;8.40;7.80;;;35.80;42.20;;;;;;4956810;28;20290;-80
2023/06/11 13:46:41;;;;;;;5.95;5.30;;;36.60;41.30;;;;;;4939593;28;20267;-79
2023/06/11 13:49:07;;;;;;;5.35;5.05;;;36.90;41.20;;;;;;4938868;29;20198;-80
2023/06/11 13:51:33;;;;;;;12.02;11.30;;;36.10;40.50;;;;;;4939091;28;20213;-80
2023/06/11 13:53:59;;;;;;;16.10;15.07;;;34.50;42.40;;;;;;4956082;28;20221;-80
2023/06/11 13:56:26;;;;;;;20.40;19.33;;;34.30;43.10;;;;;;4938930;29;20543;-80
2023/06/11 13:58:52;;;;;;;27.02;25.50;;;33.20;43.30;;;;;;4955635;28;20181;-80
2023/06/11 14:01:17;;;;;;;22.85;21.50;;;32.70;44.30;;;;;;4938936;29;20571;-80
2023/06/11 14:03:43;;;;;;;24.75;23.20;;;32.60;45.40;;;;;;4938681;28;20217;-80
2023/06/11 14:06:10;;;;;;;22.38;21.17;;;33.70;43.60;;;;;;4956037;28;20186;-82
2023/06/11 14:08:36;;;;;;;19.52;18.42;;;33.70;44.30;;;;;;4938099;28;20694;-80
2023/06/11 14:11:02;;;;;;;16.58;15.68;;;34.40;43.30;;;;;;4938422;29;20182;-80
2023/06/11 14:13:28;;;;;;;10.20;9.55;;;35.00;42.70;;;;;;4938197;28;20219;-80
2023/06/11 14:15:55;;;;;;;6.07;5.65;;;36.10;41.40;;;;;;4955263;28;20193;-80
2023/06/11 14:18:21;;;;;;;11.50;10.70;;;35.90;40.70;;;;;;4955651;28;20186;-79
2023/06/11 14:20:47;;;;;;;6.90;6.50;;;34.90;41.40;;;;;;4955973;28;20200;-80
2023/06/11 14:23:13;;;;;;;6.75;6.28;;;35.20;40.20;;;;;;4955930;28;20193;-80
2023/06/11 14:25:39;;;;;;;6.00;5.60;;;36.20;40.00;;;;;;4938285;28;20265;-79
2023/06/11 14:28:05;;;;;;;7.72;7.13;;;36.30;39.70;;;;;;4955065;28;20692;-80
2023/06/11 14:30:30;;;;;;;8.57;8.07;;;36.80;39.30;;;;;;4955604;28;20208;-80
2023/06/11 14:32:56;;;;;;;8.90;8.20;;;37.10;38.70;;;;;;4956472;28;20220;-79
2023/06/11 14:35:23;;;;;;;13.30;12.40;;;37.10;38.70;;;;;;4937710;29;20202;-79
2023/06/11 14:37:49;;;;;;;17.65;16.65;;;37.70;38.00;;;;;;4935927;28;20241;-79
2023/06/11 14:40:15;;;;;;;10.80;9.85;;;37.30;38.40;;;;;;4939703;29;20521;-80
2023/06/11 14:42:40;;;;;;;5.55;5.15;;;36.70;39.20;;;;;;4938151;28;20669;-80
2023/06/11 14:45:07;;;;;;;6.40;5.95;;;35.30;40.40;;;;;;4939305;29;20209;-78
2023/06/11 14:47:33;;;;;;;6.28;5.80;;;34.70;40.30;;;;;;4940764;28;20197;-79
2023/06/11 14:49:59;;;;;;;6.10;5.53;;;35.10;41.30;;;;;;4940472;29;20795;-80
2023/06/11 14:52:24;;;;;;;5.75;5.45;;;35.70;40.10;;;;;;4948103;28;20252;-80
2023/06/11 14:54:50;;;;;;;5.78;5.38;;;35.80;39.60;;;;;;4939414;28;20212;-80
2023/06/11 14:57:18;;;;;;;8.07;7.57;;;34.70;41.00;;;;;;4955812;28;20186;-79
2023/06/11 14:59:45;;;;;;;5.57;5.18;;;34.50;40.50;;;;;;4938076;28;20216;-79
2023/06/11 15:02:14;;;;;;;7.40;6.60;;;34.50;39.90;;;;;;4954629;28;20256;-80
2023/06/11 15:04:40;;;;;;;6.75;6.15;;;35.40;39.10;;;;;;4937969;28;20239;-80
2023/06/11 15:07:06;;;;;;;6.75;6.25;;;35.80;39.50;;;;;;4955250;28;20677;-80
2023/06/11 15:09:34;;;;;;;7.10;6.50;;;35.90;38.50;;;;;;4937882;28;20193;-79
2023/06/11 15:12:02;;;;;;;10.52;9.55;;;36.10;39.00;;;;;;4937813;29;20190;-80
2023/06/11 15:14:29;;;;;;;10.90;10.10;;;36.60;38.80;;;;;;4965729;23;20282;-81
2023/06/11 15:16:54;;;;;;;6.30;5.75;;;35.60;39.10;;;;;;4980390;28;20655;-81
2023/06/11 15:19:20;;;;;;;7.15;6.43;;;35.10;40.50;;;;;;4964217;28;20201;-81
2023/06/11 15:21:46;;;;;;;10.25;9.65;;;35.00;40.50;;;;;;4964513;28;20275;-81
2023/06/11 15:24:12;;;;;;;6.05;5.55;;;35.70;38.90;;;;;;4977250;28;20209;-81
2023/06/11 15:26:38;;;;;;;13.18;12.38;;;34.40;40.20;;;;;;4951516;28;20198;-81
2023/06/11 15:29:04;;;;;;;21.15;19.70;;;33.40;42.10;;;;;;4951650;28;20658;-81
2023/06/11 15:31:30;;;;;;;28.77;27.27;;;32.70;42.40;;;;;;4964300;28;20681;-81
2023/06/11 15:33:56;;;;;;;29.85;28.13;;;31.90;43.10;;;;;;4960906;28;20213;-81